Time;durP1;ratioP1;P1;durP2;ratioP2;P2;SDS_P1;SDS_P2;PMS_P1;PMS_P2;Temp;Humidity;BMP_temperature;BMP_pressure;BME280_temperature;BME280_humidity;BME280_pressure;Samples;Min_cycle;Max_cycle;Signal;HPM_P1;HPM_P2
2020/12/06 00:00:17;;;;;;;37.72;18.42;;;;;;;6.87;74.62;99175.94;4442726;32;20025;-74
2020/12/06 00:02:42;;;;;;;39.75;19.95;;;;;;;6.61;75.06;99174.44;4444435;32;20094;-73
2020/12/06 00:05:09;;;;;;;32.85;17.12;;;;;;;6.61;75.90;99177.22;4443721;32;20057;-75
2020/12/06 00:07:37;;;;;;;29.20;16.15;;;;;;;6.62;76.19;99178.78;4439507;32;20380;-74
2020/12/06 00:10:07;;;;;;;32.28;16.92;;;;;;;6.61;76.65;99180.00;4443728;32;20081;-76
2020/12/06 00:12:35;;;;;;;32.10;16.60;;;;;;;6.67;76.49;99183.03;4442162;32;20115;-74
2020/12/06 00:15:01;;;;;;;33.83;17.37;;;;;;;6.76;76.18;99183.13;4442507;32;20092;-75
2020/12/06 00:17:26;;;;;;;36.50;16.92;;;;;;;6.74;76.01;99177.97;4439696;32;20518;-74
2020/12/06 00:19:52;;;;;;;32.63;17.42;;;;;;;6.70;75.79;99182.12;4439201;32;20603;-77
2020/12/06 00:22:17;;;;;;;30.55;17.52;;;;;;;6.67;76.29;99175.44;4439505;32;20606;-73
2020/12/06 00:24:43;;;;;;;28.80;16.50;;;;;;;6.83;76.07;99178.06;4443238;32;20502;-73
2020/12/06 00:27:09;;;;;;;36.35;16.42;;;;;;;6.90;75.67;99172.22;4444245;32;20433;-75
2020/12/06 00:29:34;;;;;;;30.15;15.80;;;;;;;6.98;75.37;99167.97;4443383;32;20072;-74
2020/12/06 00:32:00;;;;;;;30.25;16.20;;;;;;;6.89;74.07;99175.47;4440298;32;20038;-73
2020/12/06 00:34:26;;;;;;;29.50;14.90;;;;;;;6.78;75.00;99175.06;4432032;32;20033;-76
2020/12/06 00:36:52;;;;;;;32.38;15.65;;;;;;;6.65;76.08;99182.69;4443258;32;20416;-75
2020/12/06 00:39:17;;;;;;;29.37;14.23;;;;;;;6.62;76.64;99183.56;4444067;32;20642;-77
2020/12/06 00:41:44;;;;;;;29.58;14.23;;;;;;;6.66;76.66;99184.25;4442328;32;20413;-77
2020/12/06 00:44:11;;;;;;;27.33;13.98;;;;;;;6.68;76.14;99187.38;4436742;32;20097;-75
2020/12/06 00:46:36;;;;;;;25.35;13.07;;;;;;;6.74;76.36;99182.78;4433892;32;20076;-75
2020/12/06 00:49:02;;;;;;;27.30;16.05;;;;;;;6.80;76.16;99187.34;4433279;32;20789;-77
2020/12/06 00:51:28;;;;;;;28.35;14.45;;;;;;;6.84;75.89;99181.66;4431523;32;20063;-73
2020/12/06 00:53:53;;;;;;;31.65;14.00;;;;;;;6.80;75.53;99178.19;4422398;32;20080;-77
2020/12/06 00:56:19;;;;;;;23.62;12.95;;;;;;;6.85;75.44;99178.41;4429635;32;20068;-73
2020/12/06 00:58:46;;;;;;;22.70;12.63;;;;;;;6.87;75.70;99184.31;4436411;32;20025;-73
2020/12/06 01:01:12;;;;;;;25.90;13.38;;;;;;;6.94;75.45;99183.31;4431546;32;20058;-76
2020/12/06 01:03:38;;;;;;;25.45;13.52;;;;;;;6.98;75.33;99181.94;4436188;32;20119;-73
2020/12/06 01:06:06;;;;;;;26.52;14.05;;;;;;;7.00;75.00;99178.69;4428595;32;20135;-76
2020/12/06 01:08:32;;;;;;;23.38;12.90;;;;;;;7.05;74.78;99176.09;4430045;32;20073;-76
2020/12/06 01:10:57;;;;;;;26.98;13.57;;;;;;;7.03;74.94;99183.38;4431228;32;20090;-78
2020/12/06 01:13:23;;;;;;;30.10;13.23;;;;;;;7.04;75.23;99184.94;4429320;32;20395;-77
2020/12/06 01:15:49;;;;;;;22.30;13.27;;;;;;;7.03;74.60;99183.38;4431295;32;20104;-74
2020/12/06 01:18:14;;;;;;;25.35;13.07;;;;;;;7.06;75.34;99180.44;4430725;32;20433;-75
2020/12/06 01:20:40;;;;;;;21.40;11.57;;;;;;;7.02;75.17;99185.41;4432641;32;20045;-73
2020/12/06 01:23:05;;;;;;;22.80;11.63;;;;;;;7.04;75.25;99185.75;4435397;32;20025;-75
2020/12/06 01:25:31;;;;;;;20.40;11.32;;;;;;;6.94;75.64;99172.91;4433984;32;20083;-74
2020/12/06 01:27:56;;;;;;;21.10;11.68;;;;;;;7.00;75.14;99192.69;4431464;32;20092;-74
2020/12/06 01:30:22;;;;;;;24.10;12.27;;;;;;;7.04;75.71;99179.34;4435917;32;20021;-75
2020/12/06 01:32:48;;;;;;;21.35;10.90;;;;;;;7.00;75.34;99187.84;4434730;32;20037;-75
2020/12/06 01:35:13;;;;;;;23.62;10.60;;;;;;;7.03;75.25;99186.94;4435666;32;20121;-75
2020/12/06 01:37:39;;;;;;;20.62;10.65;;;;;;;7.11;75.08;99179.88;4433354;32;20085;-77
2020/12/06 01:40:05;;;;;;;21.35;11.35;;;;;;;7.16;74.87;99182.12;4434073;32;20064;-76
2020/12/06 01:42:30;;;;;;;19.62;11.07;;;;;;;7.15;74.93;99185.37;4428855;32;20073;-73
2020/12/06 01:44:58;;;;;;;17.35;10.43;;;;;;;7.13;75.18;99193.41;4432850;32;20410;-75
2020/12/06 01:47:24;;;;;;;20.20;10.82;;;;;;;7.16;75.06;99190.50;4432902;32;20076;-75
2020/12/06 01:49:50;;;;;;;19.10;9.98;;;;;;;7.20;75.11;99185.56;4430763;32;20037;-72
2020/12/06 01:52:16;;;;;;;17.70;10.40;;;;;;;7.20;75.11;99191.16;4430480;32;20100;-74
2020/12/06 01:54:42;;;;;;;21.37;11.20;;;;;;;7.22;74.92;99187.91;4428872;32;20056;-74
2020/12/06 01:57:08;;;;;;;25.05;11.40;;;;;;;7.23;74.94;99195.84;4428626;32;20175;-73
2020/12/06 01:59:33;;;;;;;20.95;11.38;;;;;;;7.24;74.55;99207.84;4431954;32;20077;-75
2020/12/06 02:02:02;;;;;;;20.50;10.90;;;;;;;7.23;74.98;99198.66;4431379;32;20124;-77
2020/12/06 02:04:29;;;;;;;18.73;10.90;;;;;;;7.29;75.06;99196.03;4429401;32;20096;-74
2020/12/06 02:06:56;;;;;;;19.27;11.25;;;;;;;7.29;74.84;99208.03;4431873;32;20078;-73
2020/12/06 02:09:23;;;;;;;23.52;10.77;;;;;;;7.28;73.96;99200.87;4432246;32;20036;-74
2020/12/06 02:11:49;;;;;;;21.15;10.82;;;;;;;7.24;74.71;99205.03;4430406;32;20070;-73
2020/12/06 02:14:16;;;;;;;23.35;10.50;;;;;;;7.27;75.24;99207.69;4430602;32;20037;-74
2020/12/06 02:16:42;;;;;;;22.83;11.15;;;;;;;7.33;75.49;99216.31;4432616;32;20096;-77
2020/12/06 02:19:10;;;;;;;19.33;10.45;;;;;;;7.35;75.26;99209.00;4430342;32;20124;-72
2020/12/06 02:21:39;;;;;;;19.75;10.60;;;;;;;7.36;75.87;99210.56;4432187;32;20128;-73
2020/12/06 02:24:06;;;;;;;23.85;11.25;;;;;;;7.37;75.53;99211.34;4430487;32;20021;-75
2020/12/06 02:26:49;;;;;;;24.95;11.27;;;;;;;7.35;75.72;99220.22;4429225;32;20030;-72
2020/12/06 02:29:16;;;;;;;22.02;10.85;;;;;;;7.32;76.20;99223.13;4435025;32;20085;-76
2020/12/06 02:31:42;;;;;;;20.48;10.35;;;;;;;7.29;76.22;99218.44;4425136;32;20034;-74
2020/12/06 02:34:09;;;;;;;17.80;7.60;;;;;;;7.29;76.31;99215.63;4431777;32;20112;-76
2020/12/06 02:36:36;;;;;;;19.45;8.43;;;;;;;7.23;76.12;99204.25;4433853;32;20073;-77
2020/12/06 02:39:04;;;;;;;17.25;7.50;;;;;;;7.25;76.28;99218.56;4428599;32;20018;-76
2020/12/06 02:41:42;;;;;;;19.98;6.20;;;;;;;7.31;76.69;99208.37;4423875;32;20038;-74
2020/12/06 02:44:09;;;;;;;16.25;7.65;;;;;;;7.29;75.74;99213.63;4433672;32;20349;-76
2020/12/06 02:46:36;;;;;;;18.77;8.93;;;;;;;7.20;76.80;99210.75;4432073;32;20022;-76
2020/12/06 02:49:02;;;;;;;20.17;8.80;;;;;;;7.11;76.99;99213.44;4415545;32;20387;-73
2020/12/06 02:51:28;;;;;;;17.27;8.57;;;;;;;7.19;77.75;99222.38;4432247;32;20493;-74
2020/12/06 02:53:54;;;;;;;16.00;7.80;;;;;;;7.18;77.52;99202.00;4429043;32;21230;-74
2020/12/06 02:56:20;;;;;;;15.48;7.53;;;;;;;7.17;77.47;99211.66;4431150;32;20124;-76
2020/12/06 02:58:46;;;;;;;19.17;8.80;;;;;;;7.25;76.97;99209.37;4430880;32;20347;-75
2020/12/06 03:01:12;;;;;;;15.73;7.97;;;;;;;7.17;76.64;99214.44;4433715;32;20184;-75
2020/12/06 03:03:38;;;;;;;16.55;8.15;;;;;;;7.25;77.55;99196.19;4429448;32;20425;-73
2020/12/06 03:06:04;;;;;;;15.82;7.75;;;;;;;7.23;77.69;99203.44;4426016;32;20079;-77
2020/12/06 03:08:30;;;;;;;16.00;7.12;;;;;;;7.20;78.04;99201.56;4433806;32;20140;-75
2020/12/06 03:10:56;;;;;;;18.15;7.28;;;;;;;7.17;78.20;99208.84;4435399;32;20029;-76
2020/12/06 03:13:22;;;;;;;16.50;7.97;;;;;;;7.20;78.63;99202.34;4428951;32;20017;-76
2020/12/06 03:15:47;;;;;;;19.20;8.45;;;;;;;7.25;79.13;99201.78;4430989;32;20069;-74
2020/12/06 03:18:13;;;;;;;14.30;7.57;;;;;;;7.28;79.13;99205.69;4431785;32;20073;-74
2020/12/06 03:20:38;;;;;;;15.70;8.13;;;;;;;7.35;79.61;99205.41;4421764;32;20143;-73
2020/12/06 03:23:04;;;;;;;22.27;8.98;;;;;;;7.43;79.65;99203.94;4427616;32;20096;-72
2020/12/06 03:25:30;;;;;;;14.10;7.00;;;;;;;7.36;78.33;99207.78;4430315;32;20182;-75
2020/12/06 03:27:56;;;;;;;12.18;6.70;;;;;;;7.44;78.26;99211.88;4430935;32;20390;-73
2020/12/06 03:30:21;;;;;;;18.27;8.40;;;;;;;7.41;78.94;99215.59;4433946;32;20096;-72
2020/12/06 03:32:47;;;;;;;19.65;7.47;;;;;;;7.48;80.29;99220.94;4428000;32;20107;-73
2020/12/06 03:35:13;;;;;;;14.63;7.85;;;;;;;7.51;80.11;99216.44;4430699;32;20041;-71
2020/12/06 03:37:38;;;;;;;18.62;7.82;;;;;;;7.54;80.56;99215.53;4414580;32;20094;-73
2020/12/06 03:40:04;;;;;;;18.17;8.48;;;;;;;7.58;80.71;99216.97;4431817;32;20081;-72
2020/12/06 03:42:30;;;;;;;16.23;7.30;;;;;;;7.64;81.02;99214.38;4429559;32;20176;-73
2020/12/06 03:44:55;;;;;;;18.23;8.27;;;;;;;7.61;80.45;99212.50;4431445;32;20492;-74
2020/12/06 03:47:21;;;;;;;17.52;8.27;;;;;;;7.59;80.94;99210.16;4433705;32;20013;-72
2020/12/06 03:49:47;;;;;;;26.42;8.75;;;;;;;7.61;82.13;99212.50;4423506;32;20176;-71
2020/12/06 03:52:12;;;;;;;19.08;8.60;;;;;;;7.62;81.99;99214.03;4429245;32;20464;-71
2020/12/06 03:54:38;;;;;;;19.02;7.82;;;;;;;7.61;82.08;99212.50;4435276;32;20085;-72
2020/12/06 03:57:04;;;;;;;14.90;8.38;;;;;;;7.48;81.26;99214.53;4431071;32;20111;-70
2020/12/06 03:59:29;;;;;;;7.75;1.95;;;;;;;7.39;81.70;99218.06;4435513;32;20460;-70
2020/12/06 04:01:55;;;;;;;5.45;2.17;;;;;;;7.15;80.01;99227.31;4427200;32;20065;-72
2020/12/06 04:04:21;;;;;;;6.00;1.85;;;;;;;7.20;81.53;99230.31;4432298;32;20048;-73
2020/12/06 04:06:46;;;;;;;4.45;1.65;;;;;;;7.18;81.33;99218.78;4430036;32;20067;-70
2020/12/06 04:09:12;;;;;;;3.83;1.48;;;;;;;6.99;79.99;99227.47;4434165;32;20052;-74
2020/12/06 04:11:38;;;;;;;6.75;1.20;;;;;;;6.97;80.20;99229.94;4429371;32;20067;-71
2020/12/06 04:14:03;;;;;;;9.27;1.90;;;;;;;6.86;79.37;99241.47;4433266;32;20074;-72
2020/12/06 04:16:29;;;;;;;3.50;1.50;;;;;;;6.93;80.77;99234.88;4431029;32;20029;-74
2020/12/06 04:18:55;;;;;;;5.32;1.30;;;;;;;6.90;80.57;99238.56;4432706;32;20160;-73
2020/12/06 04:21:20;;;;;;;4.37;1.52;;;;;;;6.88;80.59;99235.44;4437314;32;20041;-72
2020/12/06 04:23:46;;;;;;;4.28;1.50;;;;;;;6.82;80.02;99232.44;4435851;32;20030;-72
2020/12/06 04:26:12;;;;;;;3.58;1.27;;;;;;;6.85;80.42;99242.72;4431033;32;20022;-73
2020/12/06 04:28:37;;;;;;;8.35;1.75;;;;;;;6.79;80.55;99233.31;4431481;32;20082;-74
2020/12/06 04:31:03;;;;;;;3.37;1.40;;;;;;;6.83;80.92;99239.56;4430152;32;20374;-73
2020/12/06 04:33:29;;;;;;;6.68;1.95;;;;;;;6.82;80.87;99238.03;4434046;32;20068;-71
2020/12/06 04:35:54;;;;;;;5.35;1.55;;;;;;;6.73;81.53;99240.72;4435325;32;20065;-72
2020/12/06 04:38:20;;;;;;;7.00;1.30;;;;;;;6.63;81.58;99236.22;4433350;32;20083;-71
2020/12/06 04:40:45;;;;;;;7.43;1.87;;;;;;;6.62;81.66;99242.25;4436944;32;20362;-70
2020/12/06 04:43:14;;;;;;;5.07;2.03;;;;;;;6.61;81.47;99241.50;4434176;32;20406;-74
2020/12/06 04:45:40;;;;;;;4.40;1.98;;;;;;;6.69;82.58;99236.47;4425884;32;20060;-73
2020/12/06 04:48:08;;;;;;;4.55;2.15;;;;;;;6.73;82.50;99231.53;4434806;32;20034;-71
2020/12/06 04:53:17;;;;;;;3.12;1.77;;;;;;;6.81;81.61;99227.28;3976538;32;15022674;-72
2020/12/06 04:55:45;;;;;;;11.82;2.12;;;;;;;6.82;81.87;99224.03;4432492;32;20077;-74
2020/12/06 04:58:15;;;;;;;5.93;2.08;;;;;;;6.74;81.17;99227.50;4437019;32;20017;-73
2020/12/06 05:00:44;;;;;;;7.72;1.92;;;;;;;6.77;81.74;99223.81;4432395;32;20026;-70
2020/12/06 05:03:11;;;;;;;4.22;2.00;;;;;;;6.75;81.41;99223.50;4433085;32;20455;-75
2020/12/06 05:05:39;;;;;;;5.05;2.12;;;;;;;6.82;81.71;99220.47;4435108;32;20078;-72
2020/12/06 05:08:10;;;;;;;11.75;2.35;;;;;;;6.82;82.01;99220.47;4433730;32;20386;-73
2020/12/06 05:10:41;;;;;;;8.13;1.62;;;;;;;6.87;81.61;99222.69;4434351;32;20069;-73
2020/12/06 05:13:08;;;;;;;7.22;1.73;;;;;;;6.91;81.56;99226.16;4436558;32;20021;-72
2020/12/06 05:15:34;;;;;;;4.55;2.15;;;;;;;6.79;81.90;99227.75;4435811;32;20073;-72
2020/12/06 05:18:00;;;;;;;7.37;1.52;;;;;;;6.83;82.88;99228.41;4435158;32;20064;-73
2020/12/06 05:20:27;;;;;;;2.85;1.65;;;;;;;6.76;82.19;99225.06;4435910;32;20022;-72
2020/12/06 05:22:53;;;;;;;4.78;2.05;;;;;;;6.75;82.78;99217.91;4437667;32;20053;-73
2020/12/06 05:25:20;;;;;;;4.03;1.48;;;;;;;6.76;82.49;99227.84;4431199;32;20070;-72
2020/12/06 05:27:46;;;;;;;3.47;1.50;;;;;;;6.80;82.83;99229.28;4433801;32;20037;-72
2020/12/06 05:30:13;;;;;;;5.00;1.60;;;;;;;6.83;82.79;99227.59;4433199;32;20064;-69
2020/12/06 05:32:39;;;;;;;2.45;1.52;;;;;;;6.84;82.12;99220.81;4435653;32;20107;-71
2020/12/06 05:35:07;;;;;;;3.47;1.75;;;;;;;6.80;82.34;99223.69;4437349;32;20061;-72
2020/12/06 05:37:35;;;;;;;6.18;2.03;;;;;;;6.86;83.29;99221.13;4430705;32;21198;-71
2020/12/06 05:40:04;;;;;;;5.62;1.85;;;;;;;6.89;83.57;99229.41;4432482;32;20050;-73
2020/12/06 05:42:33;;;;;;;5.47;1.90;;;;;;;6.96;83.85;99234.75;4431997;32;20056;-70
2020/12/06 05:44:59;;;;;;;7.57;1.80;;;;;;;6.93;83.12;99232.09;4437499;32;20010;-70
2020/12/06 05:47:25;;;;;;;6.70;2.12;;;;;;;6.92;83.07;99228.50;4432162;32;20407;-73
2020/12/06 05:49:50;;;;;;;3.67;2.00;;;;;;;6.89;81.49;99229.41;4432314;32;20092;-70
2020/12/06 05:52:18;;;;;;;3.85;2.20;;;;;;;6.89;82.16;99235.00;4432364;32;20513;-72
2020/12/06 05:54:45;;;;;;;6.00;2.42;;;;;;;6.95;82.32;99233.19;4435332;32;20044;-72
2020/12/06 05:57:12;;;;;;;5.62;2.30;;;;;;;6.92;81.71;99224.91;4434208;32;20069;-73
2020/12/06 05:59:39;;;;;;;7.10;2.15;;;;;;;7.02;82.31;99226.56;4432469;32;20018;-75
2020/12/06 06:02:07;;;;;;;4.22;2.08;;;;;;;7.03;82.24;99222.53;4434644;32;20053;-75
2020/12/06 06:04:41;;;;;;;4.10;1.83;;;;;;;7.08;82.68;99230.34;4424629;32;20394;-72
2020/12/06 06:07:18;;;;;;;4.15;2.25;;;;;;;7.16;82.87;99226.88;4423154;32;20075;-73
2020/12/06 06:09:49;;;;;;;5.57;2.42;;;;;;;7.29;82.37;99233.22;4425136;32;20966;-73
2020/12/06 06:12:38;;;;;;;4.32;1.90;;;;;;;7.30;82.07;99229.16;4422502;32;20714;-71
2020/12/06 06:15:05;;;;;;;8.60;2.72;;;;;;;7.29;81.39;99219.22;4423325;32;20068;-71
2020/12/06 06:17:31;;;;;;;8.73;2.80;;;;;;;7.21;81.26;99228.31;4423378;32;20814;-73
2020/12/06 06:19:58;;;;;;;5.60;2.50;;;;;;;7.29;81.72;99219.22;4421729;32;20038;-73
2020/12/06 06:22:30;;;;;;;6.30;2.95;;;;;;;7.34;81.98;99224.22;4423381;32;20126;-73
2020/12/06 06:24:58;;;;;;;8.32;2.85;;;;;;;7.40;82.29;99228.00;4426348;32;20422;-70
2020/12/06 06:27:24;;;;;;;6.03;2.87;;;;;;;7.37;82.39;99223.31;4422705;32;20560;-72
2020/12/06 06:29:50;;;;;;;7.97;2.97;;;;;;;7.38;82.56;99227.69;4422818;32;20092;-74
2020/12/06 06:32:19;;;;;;;6.82;3.45;;;;;;;7.43;82.75;99229.91;4421887;32;20470;-73
2020/12/06 06:34:45;;;;;;;5.18;2.80;;;;;;;7.47;82.58;99224.97;4423649;32;20124;-73
2020/12/06 06:37:13;;;;;;;7.25;2.67;;;;;;;7.47;82.30;99230.56;4424868;32;20087;-70
2020/12/06 06:39:40;;;;;;;7.05;2.78;;;;;;;7.47;82.18;99233.38;4421650;32;20100;-72
2020/12/06 06:42:10;;;;;;;5.62;3.22;;;;;;;7.47;82.20;99233.38;4421671;32;20076;-73
2020/12/06 06:44:38;;;;;;;5.65;2.78;;;;;;;7.45;82.00;99227.44;4420772;32;20033;-72
2020/12/06 06:47:06;;;;;;;6.07;2.60;;;;;;;7.51;82.07;99234.03;4422451;32;20474;-71
2020/12/06 06:49:48;;;;;;;5.53;2.85;;;;;;;7.55;82.47;99239.50;4423145;32;20094;-75
2020/12/06 06:52:16;;;;;;;5.20;2.70;;;;;;;7.52;82.21;99237.59;4423257;32;20030;-72
2020/12/06 06:54:46;;;;;;;5.82;3.30;;;;;;;7.56;82.26;99238.25;4423255;32;20122;-72
2020/12/06 06:57:12;;;;;;;3.83;2.97;;;;;;;7.67;82.71;99244.25;4422468;32;20414;-72
2020/12/06 06:59:40;;;;;;;8.68;3.08;;;;;;;7.69;82.33;99236.97;4423046;32;20034;-72
2020/12/06 07:02:06;;;;;;;7.78;3.30;;;;;;;7.74;82.45;99241.97;4420417;32;20152;-72
2020/12/06 07:04:32;;;;;;;7.85;3.00;;;;;;;7.79;82.15;99240.59;4422185;32;20103;-72
2020/12/06 07:06:58;;;;;;;5.55;3.00;;;;;;;7.82;82.15;99242.47;4422767;32;20065;-70
2020/12/06 07:09:27;;;;;;;5.47;3.00;;;;;;;7.79;81.24;99240.59;4420389;32;20088;-74
2020/12/06 07:11:56;;;;;;;4.55;3.00;;;;;;;7.81;81.84;99232.53;4419720;32;20073;-72
2020/12/06 07:14:23;;;;;;;5.90;2.97;;;;;;;7.82;81.58;99245.28;4419455;32;20096;-72
2020/12/06 07:16:51;;;;;;;5.43;2.80;;;;;;;7.82;81.47;99245.28;4417853;32;20081;-71
2020/12/06 07:19:17;;;;;;;7.70;3.50;;;;;;;7.77;81.14;99243.09;4419670;32;20014;-74
2020/12/06 07:21:43;;;;;;;6.70;3.12;;;;;;;7.73;81.53;99246.00;4421493;32;20170;-72
2020/12/06 07:24:09;;;;;;;6.40;3.72;;;;;;;7.73;81.78;99245.22;4420165;32;20082;-74
2020/12/06 07:26:34;;;;;;;8.05;3.75;;;;;;;7.71;80.78;99244.91;4424357;32;20414;-74
2020/12/06 07:29:00;;;;;;;9.15;3.95;;;;;;;7.66;81.31;99246.28;4423860;32;20489;-74
2020/12/06 07:31:27;;;;;;;6.82;3.70;;;;;;;7.64;81.56;99243.12;4420044;32;20413;-73
2020/12/06 07:33:53;;;;;;;10.02;3.85;;;;;;;7.64;82.05;99248.72;4422404;32;20072;-72
2020/12/06 07:36:19;;;;;;;6.55;3.67;;;;;;;7.73;82.81;99250.81;4422041;32;20038;-75
2020/12/06 07:38:44;;;;;;;8.10;3.70;;;;;;;7.74;81.28;99249.59;4422707;32;20500;-73
2020/12/06 07:41:10;;;;;;;7.60;4.03;;;;;;;7.76;82.03;99250.69;4425359;32;20329;-74
2020/12/06 07:43:36;;;;;;;10.20;4.60;;;;;;;7.85;82.39;99255.56;4420429;32;20017;-72
2020/12/06 07:46:18;;;;;;;7.95;3.80;;;;;;;7.87;81.84;99253.91;4420568;32;20030;-73
2020/12/06 07:48:44;;;;;;;6.37;3.83;;;;;;;7.86;81.76;99257.91;4422447;32;20065;-72
2020/12/06 07:51:11;;;;;;;11.00;4.15;;;;;;;7.82;81.29;99254.47;4418697;32;20066;-73
2020/12/06 07:53:53;;;;;;;10.32;3.70;;;;;;;7.88;82.08;99263.06;4420573;32;20117;-75
2020/12/06 07:56:21;;;;;;;8.32;4.25;;;;;;;7.93;81.69;99260.47;4423371;32;20522;-75
2020/12/06 07:58:57;;;;;;;7.55;4.32;;;;;;;7.98;81.57;99259.13;4423563;32;20069;-73
2020/12/06 08:01:25;;;;;;;9.13;3.72;;;;;;;7.98;81.46;99268.28;4419126;32;20093;-72
2020/12/06 08:03:54;;;;;;;7.62;3.95;;;;;;;8.03;81.62;99273.31;4418509;32;20065;-71
2020/12/06 08:06:22;;;;;;;8.95;4.43;;;;;;;8.07;81.83;99264.75;4420370;32;20026;-71
2020/12/06 08:08:50;;;;;;;9.07;4.87;;;;;;;8.06;81.54;99274.41;4421350;32;20092;-75
2020/12/06 08:11:19;;;;;;;6.40;4.40;;;;;;;8.07;81.58;99284.34;4422898;32;20063;-74
2020/12/06 08:13:51;;;;;;;8.00;4.37;;;;;;;8.01;80.78;99277.81;4423628;32;20362;-74
2020/12/06 08:16:17;;;;;;;10.15;4.45;;;;;;;8.01;80.66;99289.00;4419883;32;20092;-76
2020/12/06 08:18:44;;;;;;;17.40;8.18;;;;;;;7.93;81.09;99293.31;4419191;32;20109;-75
2020/12/06 08:21:09;;;;;;;9.32;4.28;;;;;;;7.95;81.65;99290.84;4420728;32;20074;-73
2020/12/06 08:23:37;;;;;;;10.40;4.78;;;;;;;7.93;81.44;99290.50;4425541;32;20097;-72
2020/12/06 08:26:04;;;;;;;11.75;4.57;;;;;;;7.97;81.00;99293.94;4421569;32;20093;-72
2020/12/06 08:28:30;;;;;;;12.30;4.65;;;;;;;7.96;81.94;99295.19;4421108;32;20415;-72
2020/12/06 08:30:56;;;;;;;12.00;5.50;;;;;;;7.97;82.19;99285.53;4420518;32;20048;-76
2020/12/06 08:33:24;;;;;;;8.70;4.85;;;;;;;7.93;81.64;99291.28;4423196;32;20069;-73
2020/12/06 08:35:52;;;;;;;9.85;4.97;;;;;;;7.98;81.91;99299.09;4420940;32;20030;-72
2020/12/06 08:44:01;;;;;;;9.00;5.22;;;;;;;8.48;81.19;99309.25;3984843;32;15023162;-73
2020/12/06 08:46:27;;;;;;;9.85;5.05;;;;;;;8.48;81.19;99309.25;4441515;32;20064;-75
2020/12/06 08:48:56;;;;;;;10.95;4.62;;;;;;;8.07;82.34;99298.38;4440565;32;20122;-73
2020/12/06 08:54:03;;;;;;;8.73;5.72;;;;;;;8.56;81.14;99309.78;3974354;32;15015975;-74
2020/12/06 09:01:58;;;;;;;9.13;4.97;;;;;;;8.71;80.33;99303.12;3993666;31;15015284;-74
2020/12/06 09:04:24;;;;;;;8.82;5.07;;;;;;;8.71;80.33;99303.12;4452380;32;20393;-72
2020/12/06 09:06:50;;;;;;;11.25;5.03;;;;;;;8.22;81.14;99305.03;4455578;32;20021;-75
2020/12/06 09:09:16;;;;;;;7.97;5.12;;;;;;;8.03;81.09;99309.72;4455906;32;20105;-74
2020/12/06 09:11:42;;;;;;;10.40;5.05;;;;;;;8.18;82.39;99298.75;4451480;32;20414;-74
2020/12/06 09:14:08;;;;;;;8.95;4.95;;;;;;;8.17;82.23;99311.97;4451571;32;20115;-73
2020/12/06 09:16:34;;;;;;;11.27;5.18;;;;;;;8.22;82.08;99315.47;4452562;32;20378;-74
2020/12/06 09:19:01;;;;;;;10.85;5.32;;;;;;;8.23;82.16;99315.03;4454762;32;20068;-72
2020/12/06 09:21:28;;;;;;;8.68;5.15;;;;;;;8.29;81.97;99307.59;4453299;32;20080;-74
2020/12/06 09:23:54;;;;;;;8.02;4.80;;;;;;;8.33;82.24;99316.66;4455776;32;20472;-72
2020/12/06 09:26:20;;;;;;;11.02;5.30;;;;;;;8.38;82.13;99310.47;4454238;32;20028;-74
2020/12/06 09:28:45;;;;;;;6.68;4.57;;;;;;;8.46;82.24;99317.34;4441173;32;20064;-71
2020/12/06 09:31:11;;;;;;;9.82;4.82;;;;;;;8.46;81.69;99308.94;4454875;32;20490;-70
2020/12/06 09:33:37;;;;;;;9.88;4.72;;;;;;;8.44;81.28;99307.84;4455320;32;20755;-71
2020/12/06 09:36:03;;;;;;;7.85;4.62;;;;;;;8.50;81.66;99306.75;4454888;32;20365;-72
2020/12/06 09:38:29;;;;;;;9.18;4.90;;;;;;;8.52;81.58;99311.91;4454269;32;20029;-71
2020/12/06 09:40:56;;;;;;;8.27;4.57;;;;;;;8.59;81.80;99309.63;4455981;32;20141;-72
2020/12/06 09:43:22;;;;;;;6.07;4.20;;;;;;;8.62;81.72;99308.69;4456301;32;20131;-73
2020/12/06 09:45:47;;;;;;;8.07;4.80;;;;;;;8.67;81.16;99315.72;4452590;32;20433;-72
2020/12/06 09:48:13;;;;;;;8.63;4.78;;;;;;;8.69;81.00;99310.47;4441460;32;20072;-72
2020/12/06 09:50:39;;;;;;;14.73;5.55;;;;;;;8.63;80.07;99307.47;4456428;32;20338;-71
2020/12/06 09:53:05;;;;;;;9.32;4.75;;;;;;;8.62;80.92;99311.50;4446953;32;20025;-72
2020/12/06 09:55:31;;;;;;;7.62;4.70;;;;;;;8.68;81.73;99308.91;4438293;32;20420;-70
2020/12/06 09:57:57;;;;;;;8.20;4.65;;;;;;;8.73;81.87;99314.69;4436485;32;20109;-72
2020/12/06 10:00:22;;;;;;;7.28;4.18;;;;;;;8.74;81.16;99313.44;4435508;32;20064;-72
2020/12/06 10:02:48;;;;;;;14.63;4.87;;;;;;;8.75;81.27;99317.81;4438187;32;20921;-72
2020/12/06 10:05:14;;;;;;;7.15;5.00;;;;;;;8.74;81.20;99304.25;4437361;32;20439;-71
2020/12/06 10:07:40;;;;;;;9.93;5.20;;;;;;;8.68;80.99;99300.50;4439524;32;20381;-75
2020/12/06 10:10:07;;;;;;;7.97;4.43;;;;;;;8.76;80.88;99312.97;4441416;32;20442;-71
2020/12/06 10:12:33;;;;;;;9.70;5.62;;;;;;;8.81;81.11;99307.53;4428037;32;20030;-71
2020/12/06 10:14:59;;;;;;;10.10;6.00;;;;;;;8.84;81.17;99312.22;4428875;32;20165;-73
2020/12/06 10:17:25;;;;;;;11.85;5.95;;;;;;;8.90;81.40;99304.78;4425932;32;20089;-73
2020/12/06 10:19:51;;;;;;;11.75;5.72;;;;;;;8.94;81.12;99308.25;4416416;32;20486;-73
2020/12/06 10:22:17;;;;;;;10.60;6.12;;;;;;;9.03;81.42;99313.09;4429667;32;20062;-73
2020/12/06 10:24:42;;;;;;;11.55;5.15;;;;;;;8.98;80.38;99316.50;4427706;32;20359;-73
2020/12/06 10:27:08;;;;;;;10.23;6.18;;;;;;;9.00;79.70;99314.00;4426636;32;20465;-70
2020/12/06 10:29:34;;;;;;;9.05;5.70;;;;;;;8.85;79.90;99313.81;4427073;32;20346;-75
2020/12/06 10:32:00;;;;;;;10.30;5.90;;;;;;;8.88;80.74;99323.31;4430551;32;20093;-74
2020/12/06 10:34:27;;;;;;;12.57;6.50;;;;;;;8.90;80.72;99310.38;4427757;32;20164;-71
2020/12/06 10:36:55;;;;;;;10.60;5.78;;;;;;;8.97;81.17;99318.53;4428135;32;20074;-72
2020/12/06 10:39:22;;;;;;;9.23;6.05;;;;;;;8.99;80.81;99321.66;4426647;32;20062;-74
2020/12/06 10:41:49;;;;;;;10.00;5.95;;;;;;;8.98;79.61;99325.69;4427450;32;20092;-72
2020/12/06 10:44:15;;;;;;;10.30;6.07;;;;;;;9.01;80.47;99319.16;4425281;32;20093;-75
2020/12/06 10:46:41;;;;;;;9.40;5.50;;;;;;;9.07;80.77;99316.53;4428975;32;20548;-71
2020/12/06 10:49:06;;;;;;;10.23;6.30;;;;;;;9.10;80.32;99324.03;4425157;32;20065;-71
2020/12/06 10:51:32;;;;;;;13.27;7.60;;;;;;;9.26;81.14;99323.75;4426888;32;20022;-73
2020/12/06 10:53:58;;;;;;;9.63;6.57;;;;;;;9.37;81.06;99321.31;4430368;32;20081;-72
2020/12/06 10:56:24;;;;;;;12.70;6.20;;;;;;;9.40;80.26;99318.34;4427357;32;20034;-73
2020/12/06 10:58:50;;;;;;;15.65;8.63;;;;;;;9.42;79.64;99320.69;4415245;32;20179;-71
2020/12/06 11:01:16;;;;;;;12.25;8.13;;;;;;;9.34;79.68;99323.03;4427765;32;20096;-74
2020/12/06 11:03:42;;;;;;;13.93;7.78;;;;;;;9.29;79.07;99320.03;4427323;32;20037;-74
2020/12/06 11:06:07;;;;;;;12.30;7.28;;;;;;;9.39;80.04;99318.81;4428844;32;20331;-72
2020/12/06 11:08:33;;;;;;;12.70;6.95;;;;;;;9.47;80.76;99322.87;4426558;32;20030;-71
2020/12/06 11:10:59;;;;;;;10.93;6.50;;;;;;;9.50;80.00;99321.94;4427056;32;20465;-74
2020/12/06 11:13:24;;;;;;;8.57;6.10;;;;;;;9.46;79.92;99319.31;4426457;32;20436;-71
2020/12/06 11:15:50;;;;;;;9.63;6.30;;;;;;;9.52;80.04;99314.63;4426683;32;20401;-72
2020/12/06 11:18:16;;;;;;;7.78;5.68;;;;;;;9.57;79.89;99304.78;4427090;32;20486;-74
2020/12/06 11:20:41;;;;;;;9.13;6.03;;;;;;;9.56;78.66;99317.28;4428242;32;20078;-73
2020/12/06 11:23:07;;;;;;;10.15;6.40;;;;;;;9.61;79.47;99309.00;4428015;32;20106;-73
2020/12/06 11:25:32;;;;;;;11.02;6.65;;;;;;;9.62;78.83;99316.19;4428668;32;20410;-71
2020/12/06 11:27:58;;;;;;;11.45;6.50;;;;;;;9.60;78.36;99315.09;4425510;32;20073;-75
2020/12/06 11:30:24;;;;;;;13.40;7.85;;;;;;;9.53;77.67;99310.56;4427134;32;20081;-73
2020/12/06 11:32:49;;;;;;;13.40;7.60;;;;;;;9.55;78.63;99313.66;4427371;32;20540;-74
2020/12/06 11:35:15;;;;;;;12.73;7.62;;;;;;;9.44;78.89;99323.81;4427523;32;20339;-71
2020/12/06 11:37:41;;;;;;;15.95;8.38;;;;;;;9.29;78.10;99318.00;4427369;32;20064;-71
2020/12/06 11:40:07;;;;;;;13.98;8.25;;;;;;;9.46;78.83;99315.69;4428179;32;20104;-74
2020/12/06 11:42:32;;;;;;;13.32;7.37;;;;;;;9.53;79.10;99310.56;4425586;32;20053;-70
2020/12/06 11:44:58;;;;;;;14.07;8.20;;;;;;;9.59;78.95;99316.34;4424283;32;20108;-72
2020/12/06 11:47:24;;;;;;;12.13;7.37;;;;;;;9.66;79.18;99311.22;4426355;32;20084;-72